Time;durP1;ratioP1;P1;durP2;ratioP2;P2;SDS_P1;SDS_P2;PMS_P1;PMS_P2;Temp;Humidity;BMP_temperature;BMP_pressure;BME280_temperature;BME280_humidity;BME280_pressure;Samples;Min_cycle;Max_cycle;Signal;HPM_P1;HPM_P2
2023/10/10 00:01:07;;;;;;;1.60;1.50;;;13.90;99.90;;;;;;5072011;28;20396;-60
2023/10/10 00:03:39;;;;;;;0.60;0.60;;;13.90;99.90;;;;;;5071458;28;20904;-60
2023/10/10 00:06:09;;;;;;;1.53;1.43;;;13.90;99.90;;;;;;5071596;28;20419;-60
2023/10/10 00:08:40;;;;;;;1.43;1.30;;;13.80;99.90;;;;;;5071188;28;20837;-61
2023/10/10 00:11:10;;;;;;;1.90;1.03;;;13.80;99.90;;;;;;5071341;28;20411;-60
2023/10/10 00:13:53;;;;;;;2.57;1.20;;;13.70;99.90;;;;;;5071520;28;20457;-60
2023/10/10 00:16:26;;;;;;;0.50;0.50;;;13.60;99.90;;;;;;5071127;28;20446;-60
2023/10/10 00:18:56;;;;;;;1.37;1.27;;;13.50;99.90;;;;;;5071522;28;20408;-60
2023/10/10 00:21:28;;;;;;;1.33;1.10;;;13.40;99.90;;;;;;5071212;28;20838;-60
2023/10/10 00:23:55;;;;;;;2.60;2.40;;;13.40;99.90;;;;;;5071265;28;20541;-60
2023/10/10 00:26:23;;;;;;;1.33;0.90;;;13.30;99.90;;;;;;5073894;28;20434;-60
2023/10/10 00:28:56;;;;;;;2.20;1.77;;;13.30;99.90;;;;;;5075391;28;20408;-60
2023/10/10 00:31:22;;;;;;;3.40;1.03;;;13.40;99.90;;;;;;5075384;28;20418;-59
2023/10/10 00:33:51;;;;;;;0.50;0.50;;;13.30;99.90;;;;;;5075429;28;20784;-60
2023/10/10 00:36:54;;;;;;;2.40;1.33;;;13.40;99.90;;;;;;5075044;28;20950;-60
2023/10/10 00:42:04;;;;;;;1.03;0.53;;;13.20;99.90;;;;;;5075399;28;20423;-60
2023/10/10 00:44:25;;;;;;;1.20;1.20;;;13.20;99.90;;;;;;5074597;28;20430;-60
2023/10/10 00:46:55;;;;;;;0.70;0.60;;;13.30;99.90;;;;;;5074695;28;20439;-60
2023/10/10 00:49:34;;;;;;;0.70;0.70;;;13.20;99.90;;;;;;5075050;28;20418;-61
2023/10/10 00:52:03;;;;;;;1.37;0.57;;;13.20;99.90;;;;;;5074987;28;20411;-59
2023/10/10 00:54:34;;;;;;;2.30;1.17;;;13.10;99.90;;;;;;5075014;28;20430;-60
2023/10/10 00:57:03;;;;;;;1.63;1.53;;;13.20;99.90;;;;;;5074451;28;20434;-59
2023/10/10 00:59:35;;;;;;;4.70;2.50;;;13.20;99.90;;;;;;5074862;28;20867;-61
2023/10/10 01:02:05;;;;;;;1.30;1.20;;;13.20;99.90;;;;;;5074639;28;20402;-60
2023/10/10 01:05:23;;;;;;;1.10;0.83;;;13.20;99.90;;;;;;5074931;28;20469;-60
2023/10/10 01:07:19;;;;;;;1.40;1.00;;;13.20;99.90;;;;;;5063189;28;20458;-59
2023/10/10 01:12:35;;;;;;;1.20;1.10;;;13.00;99.90;;;;;;5074483;28;20422;-60
2023/10/10 01:15:08;;;;;;;2.13;2.03;;;13.00;99.90;;;;;;5074660;28;20435;-60
2023/10/10 01:17:34;;;;;;;2.33;2.13;;;12.90;99.90;;;;;;5074106;28;21002;-60
2023/10/10 01:20:33;;;;;;;4.90;1.57;;;12.90;99.90;;;;;;5074476;28;20418;-60
2023/10/10 01:22:51;;;;;;;3.30;1.83;;;12.80;99.90;;;;;;5073641;28;20487;-60
2023/10/10 01:25:42;;;;;;;11.07;1.33;;;12.90;99.90;;;;;;5074460;28;20843;-60
2023/10/10 01:28:34;;;;;;;2.10;1.40;;;12.90;99.90;;;;;;5073950;28;20430;-59
2023/10/10 01:31:07;;;;;;;7.50;1.13;;;13.00;99.90;;;;;;5074246;28;20465;-60
2023/10/10 01:33:36;;;;;;;1.40;1.30;;;13.00;99.90;;;;;;5074709;28;20908;-60
2023/10/10 01:36:12;;;;;;;1.90;1.13;;;13.10;99.90;;;;;;5073892;28;20851;-60
2023/10/10 01:38:56;;;;;;;1.33;1.23;;;13.10;99.90;;;;;;5055066;28;20415;-60
2023/10/10 01:41:31;;;;;;;0.60;0.60;;;12.90;99.90;;;;;;5073813;28;20425;-60
2023/10/10 01:44:13;;;;;;;0.70;0.67;;;12.80;99.90;;;;;;5073885;28;20815;-60
2023/10/10 01:46:41;;;;;;;3.43;2.27;;;12.70;99.90;;;;;;5073616;28;20791;-60
2023/10/10 01:49:19;;;;;;;2.03;1.93;;;12.80;99.90;;;;;;5073568;28;20403;-60
2023/10/10 01:51:45;;;;;;;9.63;1.60;;;12.80;99.90;;;;;;5073911;28;20443;-60
2023/10/10 01:54:17;;;;;;;4.10;1.50;;;12.80;99.90;;;;;;5073777;28;20438;-58
2023/10/10 01:56:43;;;;;;;0.70;0.40;;;12.80;99.90;;;;;;5073602;28;20203;-60
2023/10/10 01:59:14;;;;;;;0.80;0.80;;;12.70;99.90;;;;;;5071339;28;20428;-59
2023/10/10 02:01:41;;;;;;;0.70;0.70;;;12.80;99.90;;;;;;5069267;28;20275;-61
2023/10/10 02:04:08;;;;;;;0.73;0.73;;;12.80;99.90;;;;;;5072046;28;20987;-59
2023/10/10 02:06:35;;;;;;;6.63;2.60;;;12.70;99.90;;;;;;5072601;28;20435;-60
2023/10/10 02:09:11;;;;;;;1.20;1.20;;;12.80;99.90;;;;;;5071838;28;20426;-59
2023/10/10 02:11:49;;;;;;;1.23;1.13;;;12.80;99.90;;;;;;5073466;28;20494;-59
2023/10/10 02:14:18;;;;;;;1.90;1.33;;;12.70;99.90;;;;;;5055159;28;20494;-59
2023/10/10 02:16:49;;;;;;;1.10;1.03;;;12.70;99.90;;;;;;5072625;28;20831;-60
2023/10/10 02:19:16;;;;;;;1.00;0.90;;;12.60;99.90;;;;;;5072860;28;20403;-59
2023/10/10 02:21:47;;;;;;;11.83;1.17;;;12.60;99.90;;;;;;5072733;28;20410;-60
2023/10/10 02:27:04;;;;;;;5.57;1.53;;;12.70;99.90;;;;;;5072883;28;20569;-58
2023/10/10 02:29:35;;;;;;;3.53;1.47;;;12.70;99.90;;;;;;5073065;28;20409;-59
2023/10/10 02:32:09;;;;;;;1.27;1.27;;;12.60;99.90;;;;;;5072089;28;20396;-58
2023/10/10 02:34:36;;;;;;;2.07;0.97;;;12.60;99.90;;;;;;5066421;28;20423;-60
2023/10/10 02:42:33;;;;;;;1.50;1.43;;;12.60;99.90;;;;;;5072889;28;20835;-60
2023/10/10 02:45:02;;;;;;;1.30;1.30;;;12.60;99.90;;;;;;5072715;28;20454;-59
2023/10/10 02:47:32;;;;;;;1.00;0.93;;;12.60;99.90;;;;;;5072007;28;20442;-60
2023/10/10 02:50:10;;;;;;;2.13;1.37;;;12.60;99.90;;;;;;5072567;28;20404;-59
2023/10/10 02:52:39;;;;;;;1.70;1.33;;;12.60;99.90;;;;;;5072650;28;20524;-59
2023/10/10 02:55:21;;;;;;;1.10;1.00;;;12.70;99.90;;;;;;5072470;28;20507;-59
2023/10/10 02:57:47;;;;;;;0.97;0.97;;;12.70;99.90;;;;;;5072314;28;20427;-59
2023/10/10 03:00:27;;;;;;;3.63;1.87;;;12.70;99.90;;;;;;5072579;28;20473;-60
2023/10/10 03:02:54;;;;;;;1.23;1.03;;;12.70;99.90;;;;;;5072330;28;20663;-60
2023/10/10 03:05:39;;;;;;;7.40;1.83;;;12.70;99.90;;;;;;5072406;28;20799;-59
2023/10/10 03:08:51;;;;;;;2.10;0.77;;;12.70;99.90;;;;;;5102861;22;20850;-59
2023/10/10 03:11:01;;;;;;;1.17;1.07;;;12.70;99.90;;;;;;5087285;28;20843;-59
2023/10/10 03:13:28;;;;;;;5.53;1.77;;;12.60;99.90;;;;;;5092415;28;20397;-59
2023/10/10 03:15:56;;;;;;;1.90;1.00;;;12.70;99.90;;;;;;5091802;28;20410;-58
2023/10/10 03:18:29;;;;;;;2.07;1.97;;;12.70;99.90;;;;;;5092177;28;20429;-59
2023/10/10 03:23:52;;;;;;;0.70;0.70;;;12.70;99.90;;;;;;5091969;28;20449;-63
2023/10/10 03:26:19;;;;;;;0.97;0.97;;;12.70;99.90;;;;;;5092260;28;20767;-58
2023/10/10 03:28:47;;;;;;;7.33;1.40;;;12.60;99.90;;;;;;5091984;28;20434;-59
2023/10/10 05:24:51;;;;;;;1.03;1.03;;;12.70;99.90;;;;;;5094572;28;20460;-64
2023/10/10 05:27:29;;;;;;;2.63;2.30;;;12.60;99.90;;;;;;5094116;28;20423;-61
2023/10/10 05:29:55;;;;;;;3.27;1.50;;;12.70;99.90;;;;;;5094485;28;20405;-60
2023/10/10 05:32:22;;;;;;;3.23;2.30;;;12.60;99.90;;;;;;5094405;28;20397;-60
2023/10/10 05:34:49;;;;;;;1.13;1.00;;;12.70;99.90;;;;;;5092857;28;20422;-60
2023/10/10 05:37:15;;;;;;;1.13;1.03;;;12.70;99.90;;;;;;5093924;28;20438;-60
2023/10/10 05:39:41;;;;;;;1.53;1.43;;;12.60;99.90;;;;;;5094278;28;20412;-60
2023/10/10 05:42:08;;;;;;;2.40;2.30;;;12.60;99.90;;;;;;5094038;28;20176;-62
2023/10/10 05:44:38;;;;;;;1.90;1.80;;;12.70;99.90;;;;;;5094113;28;20169;-59
2023/10/10 05:47:06;;;;;;;3.33;1.20;;;12.70;99.90;;;;;;5093756;28;20422;-61
2023/10/10 05:49:32;;;;;;;1.33;1.20;;;12.80;99.90;;;;;;5093945;28;20804;-61
2023/10/10 05:51:58;;;;;;;2.30;1.00;;;12.90;99.90;;;;;;5094053;28;20402;-60
2023/10/10 05:54:24;;;;;;;4.10;1.70;;;13.00;99.90;;;;;;5094170;28;20399;-59
2023/10/10 05:56:50;;;;;;;5.40;2.20;;;13.10;99.90;;;;;;5093527;28;20426;-59
2023/10/10 05:59:15;;;;;;;0.80;0.80;;;13.20;99.90;;;;;;5093973;28;20681;-59
2023/10/10 06:01:41;;;;;;;2.50;1.73;;;13.30;99.90;;;;;;5093519;28;20163;-59
2023/10/10 06:04:08;;;;;;;3.03;1.10;;;13.40;99.90;;;;;;5093505;28;20196;-59
2023/10/10 06:06:33;;;;;;;1.73;1.63;;;13.40;99.90;;;;;;5093581;28;20225;-60
2023/10/10 06:09:04;;;;;;;20.03;2.30;;;13.50;99.90;;;;;;5093183;28;20533;-59
2023/10/10 06:11:33;;;;;;;2.03;1.77;;;13.40;99.90;;;;;;5093575;28;20199;-60
2023/10/10 06:13:59;;;;;;;3.70;1.53;;;13.50;99.90;;;;;;5093525;28;20399;-59
2023/10/10 06:16:25;;;;;;;1.87;1.43;;;13.60;99.90;;;;;;5093126;28;20805;-59
2023/10/10 06:18:51;;;;;;;6.33;1.00;;;13.70;99.90;;;;;;5092982;28;20348;-61
2023/10/10 06:21:18;;;;;;;1.20;1.00;;;13.80;99.90;;;;;;5091804;28;20408;-60
2023/10/10 06:23:44;;;;;;;1.50;0.93;;;14.00;99.90;;;;;;5091299;28;20201;-60
2023/10/10 06:26:09;;;;;;;2.07;0.90;;;14.20;99.90;;;;;;5092208;28;20463;-60
2023/10/10 06:28:35;;;;;;;1.27;1.13;;;14.50;99.90;;;;;;5092153;28;20427;-60
2023/10/10 06:31:02;;;;;;;1.73;1.33;;;14.70;99.90;;;;;;5092140;28;20749;-59
2023/10/10 06:33:28;;;;;;;1.90;1.50;;;14.90;99.90;;;;;;5092492;28;20418;-60
2023/10/10 06:38:59;;;;;;;1.60;1.50;;;15.30;99.90;;;;;;5092684;28;20473;-59
2023/10/10 06:41:27;;;;;;;1.53;1.00;;;15.40;99.90;;;;;;5092722;28;20777;-60
2023/10/10 06:43:53;;;;;;;1.20;1.03;;;15.50;99.90;;;;;;5092028;28;20913;-60
2023/10/10 06:46:19;;;;;;;1.20;1.00;;;15.70;99.90;;;;;;5092155;28;20502;-60
2023/10/10 06:48:47;;;;;;;1.07;1.00;;;15.90;99.90;;;;;;5090257;28;20973;-59
2023/10/10 06:51:15;;;;;;;6.00;2.10;;;16.00;99.90;;;;;;5092523;28;20247;-59
2023/10/10 06:53:45;;;;;;;1.77;1.13;;;16.20;99.90;;;;;;5092683;28;20410;-60
2023/10/10 06:56:17;;;;;;;5.00;3.13;;;16.40;99.90;;;;;;5092322;28;20461;-61
2023/10/10 06:58:47;;;;;;;2.70;2.60;;;16.70;99.90;;;;;;5092252;28;20438;-60
2023/10/10 07:01:19;;;;;;;1.97;1.50;;;17.10;99.90;;;;;;5092660;28;20414;-61
2023/10/10 07:03:54;;;;;;;1.83;1.47;;;17.80;99.90;;;;;;5092631;28;20847;-61
2023/10/10 07:06:22;;;;;;;2.10;1.43;;;18.40;99.90;;;;;;5091554;28;20411;-60
2023/10/10 07:09:14;;;;;;;2.43;2.20;;;18.90;99.90;;;;;;5091843;28;20443;-61
2023/10/10 07:11:39;;;;;;;2.40;2.00;;;19.30;99.10;;;;;;5092188;28;20417;-61
2023/10/10 07:14:11;;;;;;;2.30;1.40;;;19.70;98.20;;;;;;5092254;28;20420;-61
2023/10/10 07:16:42;;;;;;;3.83;1.70;;;19.90;97.50;;;;;;5091593;28;20409;-60
2023/10/10 07:19:34;;;;;;;3.13;2.20;;;20.20;96.20;;;;;;5092144;28;20405;-61
2023/10/10 07:21:59;;;;;;;4.00;2.30;;;20.60;94.80;;;;;;5090100;28;20469;-61
2023/10/10 07:24:40;;;;;;;1.67;1.57;;;21.30;94.30;;;;;;5091537;28;20389;-60
2023/10/10 07:27:11;;;;;;;8.33;2.63;;;22.00;92.90;;;;;;5090586;28;20816;-61
2023/10/10 07:32:18;;;;;;;6.63;3.20;;;23.50;90.00;;;;;;5091829;28;20406;-61
2023/10/10 07:34:51;;;;;;;3.27;2.13;;;24.00;87.60;;;;;;5091189;28;20868;-61
2023/10/10 07:37:17;;;;;;;4.77;2.17;;;24.50;86.40;;;;;;5091810;28;20883;-61
2023/10/10 07:39:55;;;;;;;4.63;2.23;;;25.10;84.10;;;;;;5091923;28;20411;-61
2023/10/10 07:42:31;;;;;;;3.00;2.73;;;25.60;81.30;;;;;;5091954;28;20442;-61
2023/10/10 07:44:57;;;;;;;3.77;2.00;;;25.90;78.60;;;;;;5091517;28;20449;-61
2023/10/10 07:47:26;;;;;;;2.90;2.10;;;25.90;78.10;;;;;;5091501;28;20393;-61
2023/10/10 07:49:59;;;;;;;7.63;4.20;;;25.90;78.20;;;;;;5091678;28;20377;-61
2023/10/10 07:52:25;;;;;;;6.43;2.53;;;26.00;77.20;;;;;;5091312;28;20407;-61
2023/10/10 07:54:51;;;;;;;4.57;3.23;;;26.30;76.80;;;;;;5090767;28;20410;-61
2023/10/10 07:57:21;;;;;;;2.50;1.70;;;26.50;75.80;;;;;;5091169;28;20621;-61
2023/10/10 07:59:58;;;;;;;6.13;2.40;;;26.60;75.10;;;;;;5091792;28;20455;-61
2023/10/10 08:02:25;;;;;;;5.20;2.37;;;26.50;74.70;;;;;;5091380;28;20447;-61
2023/10/10 08:04:52;;;;;;;11.00;2.50;;;26.50;75.30;;;;;;5091505;28;20426;-61
2023/10/10 08:07:18;;;;;;;4.10;2.50;;;26.40;74.80;;;;;;5091263;28;20498;-61
2023/10/10 08:09:48;;;;;;;4.20;2.30;;;26.30;75.40;;;;;;5091521;28;20908;-60
2023/10/10 08:12:15;;;;;;;4.27;2.80;;;26.10;76.20;;;;;;5091607;28;20179;-61
2023/10/10 08:14:42;;;;;;;4.90;2.90;;;25.90;77.30;;;;;;5091590;28;20406;-61
2023/10/10 08:17:18;;;;;;;5.47;3.23;;;25.80;77.70;;;;;;5090994;28;20429;-61
2023/10/10 08:19:53;;;;;;;7.23;3.60;;;25.70;78.10;;;;;;5091743;28;20418;-61
2023/10/10 08:22:25;;;;;;;5.27;3.20;;;25.70;78.50;;;;;;5091452;28;20402;-61
2023/10/10 08:24:51;;;;;;;2.20;2.00;;;25.60;79.30;;;;;;5091375;28;20924;-61
2023/10/10 08:27:17;;;;;;;4.97;2.83;;;25.80;78.90;;;;;;5091023;28;20522;-61
2023/10/10 08:29:42;;;;;;;4.03;2.30;;;26.00;78.50;;;;;;5091252;28;20491;-61
2023/10/10 08:32:08;;;;;;;3.80;2.40;;;26.20;77.20;;;;;;5091310;28;20222;-61
2023/10/10 08:34:41;;;;;;;1.90;1.77;;;26.30;77.20;;;;;;5091535;28;20606;-61
2023/10/10 08:37:09;;;;;;;4.33;2.17;;;26.30;77.40;;;;;;5091013;28;20518;-61
2023/10/10 08:39:39;;;;;;;4.10;2.03;;;26.30;77.20;;;;;;5091212;28;20422;-61
2023/10/10 08:42:10;;;;;;;5.60;2.10;;;26.50;77.20;;;;;;5090612;28;20409;-60
2023/10/10 08:44:39;;;;;;;11.20;3.57;;;26.70;77.70;;;;;;5091011;28;20431;-60
2023/10/10 08:47:25;;;;;;;2.93;2.73;;;27.10;77.60;;;;;;5092695;28;20912;-60
2023/10/10 08:49:51;;;;;;;12.33;2.57;;;27.80;76.90;;;;;;5095236;28;20398;-61
2023/10/10 08:52:19;;;;;;;4.40;3.30;;;28.80;73.00;;;;;;5094565;28;20417;-60
2023/10/10 08:54:46;;;;;;;3.00;2.47;;;29.60;70.70;;;;;;5094959;28;20410;-61
2023/10/10 08:57:12;;;;;;;3.63;2.37;;;30.50;65.80;;;;;;5094391;28;20947;-61
2023/10/10 08:59:42;;;;;;;3.67;1.90;;;31.10;63.10;;;;;;5095158;28;20406;-61
2023/10/10 09:02:15;;;;;;;2.90;2.20;;;31.70;61.70;;;;;;5094867;28;20391;-61
2023/10/10 09:04:41;;;;;;;2.67;1.70;;;32.60;59.40;;;;;;5094958;28;20398;-61
2023/10/10 09:07:28;;;;;;;4.07;2.00;;;33.20;57.00;;;;;;5115490;22;20496;-60
2023/10/10 09:10:06;;;;;;;2.83;2.17;;;33.80;55.60;;;;;;5074116;28;20209;-60
2023/10/10 09:12:52;;;;;;;4.97;1.87;;;34.30;52.50;;;;;;5074768;28;20892;-60
2023/10/10 09:15:19;;;;;;;3.67;2.67;;;34.50;51.50;;;;;;5074376;28;20824;-60
2023/10/10 09:17:46;;;;;;;4.50;2.80;;;34.70;50.20;;;;;;5074124;28;20519;-60
2023/10/10 09:20:28;;;;;;;4.33;2.73;;;34.10;50.40;;;;;;5075109;28;20793;-60
2023/10/10 09:23:04;;;;;;;2.90;1.60;;;33.70;49.60;;;;;;5073150;28;20494;-60
2023/10/10 09:25:44;;;;;;;2.70;1.70;;;33.00;49.20;;;;;;5074486;28;20481;-61
2023/10/10 09:28:16;;;;;;;2.90;2.00;;;32.30;52.20;;;;;;5073990;28;20419;-61
2023/10/10 09:30:59;;;;;;;3.33;2.00;;;31.70;52.70;;;;;;5074083;28;20408;-61
2023/10/10 09:33:33;;;;;;;4.13;1.60;;;31.10;52.20;;;;;;5074235;28;20861;-61
2023/10/10 09:36:09;;;;;;;9.40;2.60;;;29.60;53.90;;;;;;5074156;28;20407;-60
2023/10/10 09:38:48;;;;;;;2.90;2.27;;;28.40;55.70;;;;;;5073829;28;20423;-61
2023/10/10 09:49:45;;;;;;;5.73;3.03;;;26.90;57.50;;;;;;5053998;28;20760;-61
2023/10/10 10:09:08;;;;;;;7.70;2.10;;;28.90;55.00;;;;;;5053424;28;20565;-61
2023/10/10 10:11:56;;;;;;;2.20;1.50;;;29.60;53.60;;;;;;5053587;28;20805;-61
2023/10/10 10:14:35;;;;;;;3.00;1.30;;;30.50;51.00;;;;;;5053381;28;20416;-61
2023/10/10 10:17:38;;;;;;;1.80;1.20;;;31.10;50.10;;;;;;5053152;28;20404;-61
2023/10/10 10:20:21;;;;;;;3.43;2.50;;;31.20;49.60;;;;;;5053208;28;20503;-61
2023/10/10 10:22:53;;;;;;;4.90;2.13;;;31.50;49.60;;;;;;5053451;28;20477;-61
2023/10/10 10:25:25;;;;;;;3.27;1.87;;;31.30;48.70;;;;;;5053257;28;20401;-61
2023/10/10 10:28:00;;;;;;;1.93;1.53;;;31.10;47.60;;;;;;5052841;28;20443;-61
2023/10/10 10:32:58;;;;;;;5.33;2.77;;;30.60;48.10;;;;;;5053001;28;20446;-61
2023/10/10 10:35:56;;;;;;;5.83;2.60;;;30.40;45.60;;;;;;5052950;28;20404;-61
2023/10/10 10:38:23;;;;;;;4.80;1.50;;;30.30;46.00;;;;;;5052687;28;20529;-61
2023/10/10 10:40:50;;;;;;;6.00;1.93;;;30.10;45.80;;;;;;5053268;28;20405;-60
2023/10/10 10:43:24;;;;;;;3.37;1.30;;;29.60;46.50;;;;;;5052935;28;20444;-61
2023/10/10 10:46:12;;;;;;;3.20;1.63;;;29.30;46.60;;;;;;5052746;28;20481;-61
2023/10/10 10:48:40;;;;;;;3.13;2.03;;;29.10;45.30;;;;;;5052640;28;20417;-61
2023/10/10 10:51:25;;;;;;;6.10;4.33;;;29.00;47.70;;;;;;5052579;28;20423;-61
2023/10/10 10:53:58;;;;;;;5.70;2.43;;;28.80;48.60;;;;;;5072110;28;20403;-61
2023/10/10 10:56:37;;;;;;;3.90;2.20;;;28.40;48.10;;;;;;5072200;28;20414;-61
2023/10/10 10:59:19;;;;;;;3.03;2.03;;;28.20;50.40;;;;;;5072726;28;20450;-61
2023/10/10 11:01:57;;;;;;;3.80;1.90;;;28.00;54.30;;;;;;5073007;28;20784;-62
2023/10/10 11:07:15;;;;;;;1.80;1.70;;;27.80;49.40;;;;;;5072267;28;20403;-62
2023/10/10 11:09:52;;;;;;;2.83;1.00;;;27.50;51.80;;;;;;5072094;28;20872;-62
2023/10/10 11:12:21;;;;;;;3.37;1.20;;;27.40;51.80;;;;;;5072204;28;20398;-62
2023/10/10 11:14:49;;;;;;;2.90;1.30;;;27.30;50.40;;;;;;5072630;28;20406;-62
2023/10/10 11:17:18;;;;;;;5.60;2.00;;;27.00;55.70;;;;;;5071942;28;20424;-62
2023/10/10 11:19:54;;;;;;;4.50;1.87;;;26.50;61.60;;;;;;5072350;28;20403;-62
2023/10/10 11:22:39;;;;;;;5.00;2.40;;;26.20;57.40;;;;;;5072159;28;20448;-62
2023/10/10 11:25:06;;;;;;;10.43;1.73;;;26.10;57.70;;;;;;5072210;28;20407;-61
2023/10/10 11:27:43;;;;;;;3.27;1.73;;;25.80;62.20;;;;;;5071573;28;20485;-61
2023/10/10 11:30:11;;;;;;;1.83;1.57;;;25.50;63.60;;;;;;5072127;28;20925;-61
2023/10/10 11:32:47;;;;;;;5.00;2.37;;;25.20;63.90;;;;;;5071908;28;20449;-61
2023/10/10 11:35:26;;;;;;;2.87;1.60;;;24.90;67.60;;;;;;5071823;28;20737;-61
2023/10/10 11:37:59;;;;;;;12.03;1.60;;;24.70;69.10;;;;;;5071618;28;20476;-62
2023/10/10 11:43:05;;;;;;;2.83;2.47;;;24.60;67.30;;;;;;5071747;28;20444;-62
2023/10/10 11:45:50;;;;;;;1.83;1.60;;;24.30;70.10;;;;;;5071770;28;20388;-62
2023/10/10 11:48:17;;;;;;;5.97;2.53;;;23.90;72.00;;;;;;5056405;28;20850;-61
2023/10/10 11:50:45;;;;;;;4.53;1.70;;;23.70;72.50;;;;;;5071759;28;20415;-61
2023/10/10 11:53:14;;;;;;;5.87;2.87;;;23.60;70.20;;;;;;5056382;28;20396;-62
2023/10/10 11:55:42;;;;;;;8.03;2.40;;;23.50;71.50;;;;;;5051585;28;20412;-62
2023/10/10 11:58:08;;;;;;;1.77;1.67;;;23.60;69.30;;;;;;5050725;28;21071;-62
2023/10/10 12:00:43;;;;;;;1.57;1.47;;;23.50;70.70;;;;;;5051922;28;20538;-61
2023/10/10 12:03:16;;;;;;;3.27;1.73;;;23.60;70.10;;;;;;5051560;28;20469;-62
2023/10/10 12:05:48;;;;;;;1.37;1.27;;;23.70;71.50;;;;;;5051445;28;20380;-62
2023/10/10 12:08:15;;;;;;;4.13;1.30;;;23.50;73.70;;;;;;5050692;28;20506;-62
2023/10/10 12:10:47;;;;;;;2.53;1.60;;;23.40;74.30;;;;;;5050418;28;20412;-62
2023/10/10 12:13:35;;;;;;;2.83;1.37;;;23.40;71.50;;;;;;5051108;28;20400;-62
2023/10/10 12:16:07;;;;;;;3.63;2.43;;;23.50;67.70;;;;;;5051353;28;20387;-62
2023/10/10 12:18:34;;;;;;;3.37;1.83;;;23.70;64.20;;;;;;5051114;28;20493;-62
2023/10/10 12:21:01;;;;;;;4.57;2.13;;;23.80;70.60;;;;;;5053359;28;20413;-63
2023/10/10 12:23:29;;;;;;;2.83;2.40;;;23.70;69.50;;;;;;5057897;28;20492;-62
2023/10/10 12:25:55;;;;;;;6.90;1.73;;;23.60;74.30;;;;;;5058097;28;20387;-62
2023/10/10 12:28:21;;;;;;;1.57;1.47;;;23.30;74.40;;;;;;5057722;28;20932;-62
2023/10/10 12:30:47;;;;;;;3.97;2.90;;;23.20;77.10;;;;;;5057920;28;20194;-62
2023/10/10 12:33:12;;;;;;;10.33;2.20;;;23.10;76.30;;;;;;5057470;28;20170;-61
2023/10/10 12:35:42;;;;;;;2.60;2.20;;;23.00;77.50;;;;;;5057673;28;20578;-62
2023/10/10 12:38:09;;;;;;;5.47;3.37;;;23.00;78.40;;;;;;5057378;28;20190;-62
2023/10/10 12:40:34;;;;;;;1.60;1.50;;;22.90;77.20;;;;;;5057762;28;20415;-62
2023/10/10 12:43:03;;;;;;;4.33;1.97;;;22.80;76.50;;;;;;5057687;28;20448;-62
2023/10/10 12:45:31;;;;;;;2.80;1.33;;;22.90;67.10;;;;;;5058188;28;20174;-62
2023/10/10 12:47:58;;;;;;;3.50;2.73;;;23.10;66.10;;;;;;5057317;28;20444;-62
2023/10/10 12:50:26;;;;;;;3.63;1.60;;;22.90;73.60;;;;;;5057590;28;20412;-62
2023/10/10 12:55:55;;;;;;;2.00;1.30;;;22.70;73.70;;;;;;5040128;28;21016;-62
2023/10/10 12:58:22;;;;;;;12.20;3.47;;;22.60;78.10;;;;;;5057477;28;20448;-62
2023/10/10 13:00:52;;;;;;;9.73;2.10;;;22.30;70.60;;;;;;5057652;28;20415;-62
2023/10/10 13:03:30;;;;;;;4.50;1.57;;;22.20;75.60;;;;;;5057605;28;20505;-62
2023/10/10 13:06:00;;;;;;;3.77;1.80;;;22.10;74.60;;;;;;5057290;28;20990;-62
2023/10/10 13:08:46;;;;;;;7.40;3.10;;;22.10;77.40;;;;;;5057180;28;20456;-62
2023/10/10 13:11:16;;;;;;;5.00;1.67;;;22.10;74.60;;;;;;5056545;28;20399;-62
2023/10/10 13:13:45;;;;;;;4.60;3.47;;;22.10;76.40;;;;;;5057707;28;20915;-62
2023/10/10 13:16:23;;;;;;;3.60;1.90;;;22.20;76.20;;;;;;5056383;28;20420;-62
2023/10/10 13:18:52;;;;;;;9.43;4.53;;;22.10;79.20;;;;;;5055351;28;20525;-62
2023/10/10 13:21:20;;;;;;;2.60;2.17;;;22.00;77.50;;;;;;5055920;28;20412;-62
2023/10/10 13:23:47;;;;;;;5.17;2.70;;;22.10;71.60;;;;;;5055515;28;20458;-61
2023/10/10 13:26:13;;;;;;;10.03;3.60;;;22.20;72.50;;;;;;5055715;28;20717;-62
2023/10/10 13:28:44;;;;;;;4.43;3.00;;;22.30;73.30;;;;;;5055486;28;20416;-62
2023/10/10 13:31:18;;;;;;;2.50;1.30;;;22.30;72.70;;;;;;5055918;28;20185;-62
2023/10/10 13:33:44;;;;;;;4.20;1.43;;;22.20;77.20;;;;;;5055119;28;20404;-62
2023/10/10 13:36:12;;;;;;;5.03;1.90;;;22.00;78.90;;;;;;5053983;28;20411;-61
2023/10/10 13:38:53;;;;;;;2.00;1.37;;;21.80;75.30;;;;;;5053926;28;20950;-62
2023/10/10 13:41:20;;;;;;;1.07;1.07;;;21.80;75.10;;;;;;5054320;28;20417;-61
2023/10/10 13:43:47;;;;;;;4.23;1.80;;;21.80;72.90;;;;;;5053990;28;20490;-62
2023/10/10 13:46:18;;;;;;;2.63;1.80;;;21.90;73.70;;;;;;5053831;28;20491;-62
2023/10/10 13:48:44;;;;;;;3.03;2.13;;;21.90;76.90;;;;;;5053549;28;20845;-62
2023/10/10 13:51:09;;;;;;;2.40;1.87;;;21.90;72.90;;;;;;5053990;28;20407;-62
2023/10/10 13:53:39;;;;;;;2.43;1.67;;;22.00;74.50;;;;;;5054005;28;20418;-61
2023/10/10 13:56:05;;;;;;;4.20;1.30;;;22.00;76.50;;;;;;5053626;28;20188;-62
2023/10/10 13:58:31;;;;;;;4.20;1.50;;;21.90;76.90;;;;;;5053574;28;20518;-62
2023/10/10 14:03:45;;;;;;;4.57;1.83;;;21.90;71.70;;;;;;5054014;28;20889;-62
2023/10/10 14:06:16;;;;;;;5.67;2.00;;;21.90;74.80;;;;;;5053584;28;20403;-61
2023/10/10 14:08:44;;;;;;;4.70;2.57;;;21.90;73.20;;;;;;5053205;28;20448;-62
2023/10/10 14:11:11;;;;;;;2.30;1.47;;;21.80;74.20;;;;;;5053601;28;20439;-62
2023/10/10 14:13:37;;;;;;;3.07;1.50;;;21.80;74.40;;;;;;5053450;28;20409;-62
2023/10/10 14:16:05;;;;;;;10.90;4.00;;;21.80;75.40;;;;;;5053348;28;20498;-62
2023/10/10 14:18:41;;;;;;;2.17;2.00;;;21.80;74.50;;;;;;5053373;28;20205;-62
2023/10/10 14:21:08;;;;;;;3.47;1.90;;;21.60;76.90;;;;;;5053373;28;20509;-62
2023/10/10 14:23:40;;;;;;;3.23;1.80;;;21.20;76.70;;;;;;5053257;28;20489;-62
2023/10/10 14:26:13;;;;;;;5.93;2.23;;;21.20;76.90;;;;;;5053089;28;20431;-61
2023/10/10 14:28:55;;;;;;;7.23;2.70;;;21.20;73.60;;;;;;5053089;28;20428;-62
2023/10/10 14:31:27;;;;;;;6.60;1.47;;;21.10;75.10;;;;;;5053246;28;20411;-62
2023/10/10 14:33:54;;;;;;;4.80;2.40;;;21.00;77.40;;;;;;5053157;28;20415;-62
2023/10/10 14:36:21;;;;;;;2.33;1.87;;;20.90;77.00;;;;;;5052930;28;20776;-61
2023/10/10 14:38:49;;;;;;;2.10;1.90;;;21.00;73.70;;;;;;5052811;28;20469;-62
2023/10/10 14:41:22;;;;;;;6.13;2.77;;;21.00;78.80;;;;;;5053123;28;20406;-62
2023/10/10 14:43:54;;;;;;;4.00;3.70;;;20.80;77.80;;;;;;5052455;28;20492;-62
2023/10/10 14:46:27;;;;;;;1.50;1.00;;;20.90;75.60;;;;;;5052853;28;20472;-62
2023/10/10 14:49:00;;;;;;;3.13;2.07;;;20.90;75.70;;;;;;5052704;28;20969;-62
2023/10/10 14:51:33;;;;;;;5.63;1.80;;;20.90;73.10;;;;;;5054843;28;20461;-62
2023/10/10 14:54:05;;;;;;;4.00;1.13;;;20.90;75.60;;;;;;5072910;28;20433;-62
2023/10/10 14:56:35;;;;;;;5.93;3.97;;;20.80;75.10;;;;;;5072039;28;20491;-62
2023/10/10 14:59:04;;;;;;;2.50;1.50;;;20.70;77.20;;;;;;5054686;28;20441;-62
2023/10/10 15:01:34;;;;;;;1.83;1.73;;;20.70;74.00;;;;;;5072414;28;20479;-62
2023/10/10 15:04:04;;;;;;;3.90;3.10;;;20.60;76.90;;;;;;5072608;28;20449;-62
2023/10/10 15:06:31;;;;;;;1.83;1.60;;;20.50;78.00;;;;;;5072049;28;20408;-62
2023/10/10 15:08:58;;;;;;;6.23;1.53;;;20.40;75.80;;;;;;5095973;22;20525;-62
2023/10/10 15:11:27;;;;;;;7.33;2.73;;;20.40;76.50;;;;;;5052533;28;20398;-62
2023/10/10 15:13:54;;;;;;;6.30;2.47;;;20.40;74.80;;;;;;5052318;28;20942;-62
2023/10/10 15:16:21;;;;;;;3.90;1.73;;;20.40;76.90;;;;;;5052179;28;20394;-62
2023/10/10 15:18:51;;;;;;;8.13;2.27;;;20.30;76.30;;;;;;5052149;28;20452;-62
2023/10/10 15:21:20;;;;;;;6.57;2.37;;;20.30;76.70;;;;;;5052263;28;20398;-62
2023/10/10 15:23:47;;;;;;;3.27;1.67;;;20.20;75.10;;;;;;5052150;28;20503;-62
2023/10/10 15:26:22;;;;;;;1.77;1.60;;;20.20;75.40;;;;;;5051857;28;20458;-62
2023/10/10 15:28:52;;;;;;;2.43;1.33;;;20.10;74.70;;;;;;5051954;28;20486;-62
2023/10/10 15:31:19;;;;;;;2.80;1.40;;;20.10;74.80;;;;;;5052125;28;20427;-62
2023/10/10 15:33:47;;;;;;;3.73;1.90;;;20.00;76.90;;;;;;5051993;28;20416;-62
2023/10/10 15:36:13;;;;;;;2.23;1.87;;;20.00;75.70;;;;;;5051905;28;20405;-62
2023/10/10 15:38:39;;;;;;;2.03;1.83;;;19.90;73.50;;;;;;5051356;28;20946;-60
2023/10/10 15:41:25;;;;;;;1.90;1.20;;;19.90;73.40;;;;;;5051831;28;20420;-62
2023/10/10 15:43:51;;;;;;;3.00;1.63;;;19.90;73.00;;;;;;5051861;28;20190;-62
2023/10/10 15:46:19;;;;;;;2.17;1.37;;;19.80;73.30;;;;;;5051525;28;20801;-61
2023/10/10 15:48:48;;;;;;;1.40;1.10;;;19.80;73.70;;;;;;5051650;28;20459;-62
2023/10/10 15:51:20;;;;;;;2.33;1.77;;;19.70;75.60;;;;;;5051814;28;20419;-62
2023/10/10 15:53:47;;;;;;;5.87;1.50;;;19.60;75.70;;;;;;5050821;28;20789;-62
2023/10/10 15:56:15;;;;;;;1.53;1.43;;;19.50;75.10;;;;;;5050686;28;20404;-61
2023/10/10 15:58:49;;;;;;;2.00;1.30;;;19.50;74.00;;;;;;5051068;28;20430;-60
2023/10/10 16:01:21;;;;;;;3.30;1.70;;;19.40;75.30;;;;;;5051535;28;20546;-61